Time;durP1;ratioP1;P1;durP2;ratioP2;P2;SDS_P1;SDS_P2;PMS_P1;PMS_P2;Temp;Humidity;BMP_temperature;BMP_pressure;BME280_temperature;BME280_humidity;BME280_pressure;Samples;Min_cycle;Max_cycle;Signal;HPM_P1;HPM_P2
2022/01/05 00:01:24;;;;;;;8.85;2.78;;;;;;;1.24;100.00;100084.03;5324843;28;20024;-84
2022/01/05 00:03:56;;;;;;;13.40;2.72;;;;;;;1.16;100.00;100083.72;5324602;27;20198;-84
2022/01/05 00:06:27;;;;;;;10.15;2.13;;;;;;;1.11;100.00;100084.00;5325579;28;20376;-84
2022/01/05 00:08:58;;;;;;;10.48;2.17;;;;;;;1.11;100.00;100102.38;5325436;28;20060;-84
2022/01/05 00:11:30;;;;;;;14.80;2.25;;;;;;;1.09;100.00;100095.56;5319176;28;20457;-84
2022/01/05 00:14:01;;;;;;;17.45;2.67;;;;;;;1.01;100.00;100090.78;5323223;28;20028;-84
2022/01/05 00:16:33;;;;;;;14.85;2.75;;;;;;;1.00;100.00;100090.88;5306198;28;20413;-84
2022/01/05 00:19:05;;;;;;;16.73;3.60;;;;;;;1.06;100.00;100101.84;5324128;28;20534;-84
2022/01/05 00:21:36;;;;;;;14.05;3.85;;;;;;;1.07;100.00;100095.66;5322784;28;20051;-84
2022/01/05 00:24:08;;;;;;;15.93;2.67;;;;;;;1.13;100.00;100090.00;5323914;28;20032;-84
2022/01/05 00:26:40;;;;;;;14.98;2.30;;;;;;;0.89;100.00;100076.66;5323846;28;20096;-84
2022/01/05 00:29:11;;;;;;;11.85;2.10;;;;;;;0.98;100.00;100090.16;5303981;28;20054;-84
2022/01/05 00:31:42;;;;;;;15.07;2.72;;;;;;;1.01;100.00;100092.56;5321776;28;20016;-84
2022/01/05 00:34:14;;;;;;;14.63;3.78;;;;;;;0.88;100.00;100084.66;5324004;28;20562;-84
2022/01/05 00:36:45;;;;;;;13.30;2.60;;;;;;;0.88;100.00;100092.53;5323886;28;20024;-84
2022/01/05 00:39:17;;;;;;;12.82;4.70;;;;;;;0.90;100.00;100085.41;5323707;28;20020;-84
2022/01/05 00:41:48;;;;;;;16.08;3.78;;;;;;;0.95;100.00;100091.19;5323986;28;20036;-84
2022/01/05 00:44:19;;;;;;;17.08;2.85;;;;;;;0.96;100.00;100094.66;5323619;28;20395;-84
2022/01/05 00:46:51;;;;;;;16.52;4.70;;;;;;;0.89;100.00;100092.41;5324299;28;20576;-84
2022/01/05 00:49:22;;;;;;;14.98;1.88;;;;;;;0.80;100.00;100100.06;5305695;28;20158;-84
2022/01/05 00:51:54;;;;;;;14.07;2.60;;;;;;;0.73;100.00;100105.69;5302069;28;20024;-84
2022/01/05 00:54:25;;;;;;;24.85;4.05;;;;;;;0.80;100.00;100115.81;5304386;28;20028;-84
2022/01/05 00:56:56;;;;;;;10.02;2.60;;;;;;;0.67;100.00;100108.72;5324006;28;20101;-84
2022/01/05 00:59:28;;;;;;;13.90;3.25;;;;;;;0.66;100.00;100129.81;5324188;28;20024;-84
2022/01/05 01:01:59;;;;;;;14.82;3.08;;;;;;;0.55;100.00;100122.59;5322396;28;20107;-84
2022/01/05 01:04:30;;;;;;;15.23;4.07;;;;;;;0.74;100.00;100131.00;5317884;27;20070;-84
2022/01/05 01:07:02;;;;;;;14.75;2.95;;;;;;;0.67;100.00;100129.72;5345178;27;20166;-84
2022/01/05 01:09:33;;;;;;;20.75;4.07;;;;;;;0.68;100.00;100130.53;5344890;27;20039;-84
2022/01/05 01:12:05;;;;;;;17.55;2.97;;;;;;;0.67;100.00;100131.50;5342839;27;20093;-84
2022/01/05 01:14:37;;;;;;;16.65;3.03;;;;;;;0.61;100.00;100127.47;5344844;27;20097;-84
2022/01/05 01:17:08;;;;;;;16.70;4.50;;;;;;;0.58;100.00;100122.41;5343675;27;20020;-84
2022/01/05 01:19:39;;;;;;;14.30;3.58;;;;;;;0.49;100.00;100133.47;5345411;27;20081;-85
2022/01/05 01:22:10;;;;;;;15.82;4.38;;;;;;;0.46;100.00;100142.38;5344667;27;20035;-84
2022/01/05 01:24:42;;;;;;;13.43;3.45;;;;;;;0.51;100.00;100142.94;5344406;27;20082;-84
2022/01/05 01:27:13;;;;;;;23.48;4.70;;;;;;;0.36;100.00;100139.47;5349009;27;20050;-84
2022/01/05 01:29:45;;;;;;;17.35;4.32;;;;;;;0.31;100.00;100140.69;5347645;27;20097;-84
2022/01/05 01:32:16;;;;;;;15.13;3.88;;;;;;;0.38;100.00;100142.84;5348212;27;20422;-84
2022/01/05 01:34:48;;;;;;;13.13;3.30;;;;;;;0.18;100.00;100135.38;5348241;27;20024;-84
2022/01/05 01:37:19;;;;;;;14.77;3.30;;;;;;;0.11;100.00;100149.78;5347700;27;20020;-84
2022/01/05 01:39:50;;;;;;;14.40;3.42;;;;;;;0.17;100.00;100155.50;5348760;27;20639;-84
2022/01/05 01:42:22;;;;;;;18.77;3.17;;;;;;;0.01;100.00;100148.66;5348631;27;20098;-84
2022/01/05 01:44:53;;;;;;;18.67;3.40;;;;;;;-0.01;100.00;100136.47;5346617;27;20028;-84
2022/01/05 01:47:25;;;;;;;19.67;4.13;;;;;;;0.19;100.00;100152.78;5348190;27;20031;-84
2022/01/05 01:49:56;;;;;;;18.77;3.65;;;;;;;0.28;100.00;100148.75;5346647;27;20027;-84
2022/01/05 01:52:27;;;;;;;19.83;4.18;;;;;;;0.14;100.00;100144.34;5347599;27;20024;-84
2022/01/05 01:54:59;;;;;;;22.02;3.92;;;;;;;0.26;100.00;100138.34;5348221;27;20038;-84
2022/01/05 01:57:34;;;;;;;21.50;3.28;;;;;;;0.15;100.00;100138.16;5348760;27;20020;-84
2022/01/05 02:00:06;;;;;;;21.05;3.78;;;;;;;0.21;100.00;100143.06;5347887;27;20034;-84
2022/01/05 02:02:38;;;;;;;11.20;3.10;;;;;;;0.08;100.00;100144.72;5342922;27;20023;-84
2022/01/05 02:05:10;;;;;;;13.05;3.05;;;;;;;0.09;100.00;100151.63;5346564;27;20106;-84
2022/01/05 02:07:42;;;;;;;12.65;3.30;;;;;;;0.13;100.00;100147.91;5347598;27;20476;-84
2022/01/05 02:10:13;;;;;;;13.63;3.22;;;;;;;0.16;100.00;100145.94;5348951;27;20030;-84
2022/01/05 02:12:45;;;;;;;8.77;2.28;;;;;;;0.08;100.00;100142.09;5347694;27;20432;-84
2022/01/05 02:15:16;;;;;;;18.50;3.28;;;;;;;0.14;100.00;100133.84;5347446;27;20034;-84
2022/01/05 02:20:34;;;;;;;12.45;2.58;;;;;;;0.09;100.00;100136.78;5345843;27;20047;-84
2022/01/05 02:23:05;;;;;;;15.05;3.08;;;;;;;0.20;100.00;100151.84;5347722;27;20016;-84
2022/01/05 02:25:36;;;;;;;16.90;2.45;;;;;;;0.25;100.00;100141.09;5347922;27;20040;-84
2022/01/05 02:28:08;;;;;;;16.80;3.25;;;;;;;0.10;100.00;100146.31;5348074;27;20072;-84
2022/01/05 02:30:39;;;;;;;13.05;3.10;;;;;;;0.17;100.00;100159.91;5346110;27;20026;-84
2022/01/05 02:33:11;;;;;;;11.43;3.45;;;;;;;0.25;100.00;100149.78;5346683;27;20024;-84
2022/01/05 02:35:42;;;;;;;13.10;2.60;;;;;;;0.23;100.00;100156.91;5343716;27;20115;-84
2022/01/05 02:38:18;;;;;;;20.70;4.75;;;;;;;0.26;100.00;100163.75;5347129;27;20023;-84
2022/01/05 02:40:50;;;;;;;10.10;2.80;;;;;;;0.09;100.00;100159.50;5343471;27;20028;-84
2022/01/05 02:43:22;;;;;;;13.57;2.75;;;;;;;-0.02;100.00;100157.53;5346041;27;20031;-84
2022/01/05 02:45:53;;;;;;;17.13;3.67;;;;;;;0.22;100.00;100170.97;5346818;27;20023;-84
2022/01/05 02:48:24;;;;;;;15.45;3.00;;;;;;;0.22;100.00;100163.09;5346855;27;20070;-84
2022/01/05 02:50:57;;;;;;;16.10;3.03;;;;;;;0.06;100.00;100172.81;5346216;27;20024;-84
2022/01/05 02:53:28;;;;;;;13.57;3.03;;;;;;;0.05;100.00;100171.97;5346247;27;20401;-84
2022/01/05 02:56:00;;;;;;;16.40;3.47;;;;;;;0.09;100.00;100168.25;5347478;27;20035;-84
2022/01/05 02:58:31;;;;;;;16.20;3.22;;;;;;;-0.04;100.00;100178.59;5345697;27;20118;-84
2022/01/05 03:01:03;;;;;;;9.30;2.50;;;;;;;-0.12;100.00;100185.22;5347609;27;20027;-84
2022/01/05 03:03:35;;;;;;;11.80;4.22;;;;;;;-0.11;100.00;100186.94;5344961;27;20375;-84
2022/01/05 03:06:06;;;;;;;16.00;3.47;;;;;;;-0.18;100.00;100194.31;5325544;28;20039;-84
2022/01/05 03:08:38;;;;;;;14.40;3.60;;;;;;;-0.40;100.00;100184.25;5325668;28;20539;-84
2022/01/05 03:11:09;;;;;;;16.40;3.83;;;;;;;-0.15;100.00;100170.53;5325811;27;20467;-84
2022/01/05 03:13:42;;;;;;;10.45;3.00;;;;;;;-0.14;100.00;100187.97;5324162;28;20336;-84
2022/01/05 03:16:14;;;;;;;14.80;2.70;;;;;;;-0.34;100.00;100199.59;5323800;28;20487;-84
2022/01/05 03:18:45;;;;;;;12.30;2.47;;;;;;;-0.22;100.00;100193.63;5322052;28;20020;-84
2022/01/05 03:21:16;;;;;;;16.20;3.80;;;;;;;-0.17;100.00;100197.78;5320364;28;20031;-84
2022/01/05 03:23:48;;;;;;;12.50;3.72;;;;;;;-0.10;100.00;100210.44;5325248;28;20464;-84
2022/01/05 03:26:19;;;;;;;15.82;2.80;;;;;;;-0.10;100.00;100218.31;5324673;28;20419;-84
2022/01/05 03:28:51;;;;;;;23.88;5.47;;;;;;;-0.03;100.00;100210.94;5324659;28;20073;-85
2022/01/05 03:31:22;;;;;;;19.80;4.68;;;;;;;0.08;100.00;100219.00;5325160;28;20033;-84
2022/01/05 03:33:54;;;;;;;16.92;3.40;;;;;;;0.04;100.00;100214.88;5325648;27;20444;-84
2022/01/05 03:36:25;;;;;;;26.55;5.40;;;;;;;0.09;100.00;100210.19;5324379;28;20373;-84
2022/01/05 03:38:57;;;;;;;17.83;3.63;;;;;;;0.16;100.00;100214.16;5324985;28;20020;-84
2022/01/05 03:41:28;;;;;;;15.15;3.30;;;;;;;0.11;100.00;100226.69;5325444;28;20103;-84
2022/01/05 03:43:59;;;;;;;16.88;3.00;;;;;;;0.05;100.00;100228.81;5306653;28;20043;-84
2022/01/05 03:46:31;;;;;;;12.00;3.35;;;;;;;-0.10;100.00;100230.56;5324854;28;20107;-84
2022/01/05 03:49:03;;;;;;;15.98;2.65;;;;;;;-0.08;100.00;100226.91;5305547;28;20027;-84
2022/01/05 03:51:35;;;;;;;15.43;3.17;;;;;;;-0.11;100.00;100207.91;5305306;28;20028;-84
2022/01/05 03:54:06;;;;;;;18.45;3.13;;;;;;;0.10;100.00;100227.59;5324503;28;20488;-83
2022/01/05 03:56:38;;;;;;;11.73;3.67;;;;;;;0.20;100.00;100234.97;5330796;28;20491;-83
2022/01/05 03:59:09;;;;;;;19.30;4.20;;;;;;;0.38;100.00;100233.84;5336160;28;20034;-83
2022/01/05 04:01:41;;;;;;;15.70;2.85;;;;;;;0.45;100.00;100239.56;5316748;28;20028;-83
2022/01/05 04:04:12;;;;;;;14.65;2.78;;;;;;;0.49;100.00;100230.56;5336139;27;20062;-83
2022/01/05 04:06:43;;;;;;;15.40;3.53;;;;;;;0.44;100.00;100233.50;5314065;28;20392;-84
2022/01/05 04:09:15;;;;;;;12.85;2.78;;;;;;;0.62;100.00;100244.66;5325294;27;20024;-84
2022/01/05 04:11:46;;;;;;;19.00;3.50;;;;;;;0.71;100.00;100224.88;5331658;27;20042;-84
2022/01/05 04:14:17;;;;;;;15.95;2.80;;;;;;;0.61;100.00;100223.72;5337441;27;20035;-83
2022/01/05 04:16:49;;;;;;;11.57;3.35;;;;;;;0.59;100.00;100233.50;5338770;28;20024;-83
2022/01/05 04:19:20;;;;;;;19.08;4.00;;;;;;;0.57;100.00;100233.56;5331346;28;20024;-85
2022/01/05 04:21:51;;;;;;;15.55;4.05;;;;;;;0.69;100.00;100232.00;5306290;28;20081;-84
2022/01/05 04:24:23;;;;;;;15.07;3.60;;;;;;;0.67;100.00;100239.97;5326355;28;20480;-82
2022/01/05 04:26:54;;;;;;;19.85;4.40;;;;;;;0.73;100.00;100229.06;5326360;28;20069;-83
2022/01/05 04:29:26;;;;;;;18.65;4.32;;;;;;;0.74;100.00;100243.06;5326486;28;20103;-83
2022/01/05 04:31:57;;;;;;;14.73;3.22;;;;;;;0.63;100.00;100245.47;5326027;28;20036;-83
2022/01/05 04:34:28;;;;;;;18.83;3.50;;;;;;;0.57;100.00;100236.19;5326115;28;20102;-83
2022/01/05 04:37:00;;;;;;;16.02;3.47;;;;;;;0.59;100.00;100238.75;5326494;28;20035;-83
2022/01/05 04:39:33;;;;;;;17.83;3.78;;;;;;;0.52;100.00;100246.13;5325494;28;20039;-84
2022/01/05 04:42:05;;;;;;;20.67;2.97;;;;;;;0.54;100.00;100265.25;5324964;28;20017;-84
2022/01/05 04:44:36;;;;;;;18.85;2.75;;;;;;;0.51;100.00;100266.28;5320882;28;20371;-84
2022/01/05 04:47:08;;;;;;;17.80;3.88;;;;;;;0.38;100.00;100260.91;5306353;28;20019;-84
2022/01/05 04:49:39;;;;;;;16.05;3.08;;;;;;;0.26;100.00;100251.16;5325819;28;20059;-84
2022/01/05 04:52:11;;;;;;;16.40;2.90;;;;;;;0.36;100.00;100268.03;5325223;28;20395;-84
2022/01/05 04:54:42;;;;;;;20.23;3.92;;;;;;;0.50;100.00;100274.25;5325236;28;20017;-84
2022/01/05 04:57:17;;;;;;;18.65;3.53;;;;;;;0.62;100.00;100262.19;5324321;28;20064;-84
2022/01/05 04:59:48;;;;;;;17.05;3.78;;;;;;;0.62;100.00;100256.94;5324132;28;20030;-84
2022/01/05 05:02:19;;;;;;;22.70;5.72;;;;;;;0.78;100.00;100270.81;5324489;28;20050;-84
2022/01/05 05:04:51;;;;;;;24.70;6.30;;;;;;;0.88;100.00;100265.84;5324995;27;20052;-84
2022/01/05 05:07:22;;;;;;;14.43;3.05;;;;;;;0.88;100.00;100265.84;5346959;27;20077;-84
2022/01/05 05:09:53;;;;;;;20.15;3.20;;;;;;;1.11;100.00;100280.19;5347304;27;20027;-84
2022/01/05 05:12:25;;;;;;;15.35;4.13;;;;;;;1.16;100.00;100274.63;5344763;27;20016;-82
2022/01/05 05:14:57;;;;;;;15.88;2.70;;;;;;;1.27;100.00;100280.06;5346480;27;20024;-83
2022/01/05 05:17:28;;;;;;;20.45;3.97;;;;;;;1.32;100.00;100270.94;5344426;27;20331;-83
2022/01/05 05:19:59;;;;;;;19.55;3.35;;;;;;;1.38;100.00;100276.75;5346166;27;20012;-83
2022/01/05 05:22:30;;;;;;;13.77;3.47;;;;;;;1.31;100.00;100271.91;5344592;27;20027;-83
2022/01/05 05:25:06;;;;;;;19.95;3.55;;;;;;;1.31;100.00;100274.53;5346130;27;20036;-83
2022/01/05 05:27:37;;;;;;;16.73;2.85;;;;;;;1.28;100.00;100276.47;5345856;27;20487;-83
2022/01/05 05:30:08;;;;;;;15.13;2.63;;;;;;;1.18;100.00;100273.59;5346674;27;20020;-83
2022/01/05 05:32:40;;;;;;;15.07;2.63;;;;;;;1.24;100.00;100267.09;5345400;27;20024;-84
2022/01/05 05:35:12;;;;;;;14.38;3.08;;;;;;;1.22;100.00;100259.31;5339938;27;20066;-84
2022/01/05 05:37:43;;;;;;;14.75;3.42;;;;;;;1.24;100.00;100275.00;5340218;27;20107;-83
2022/01/05 05:40:15;;;;;;;9.25;2.30;;;;;;;1.15;100.00;100257.19;5345314;27;20118;-83
2022/01/05 05:42:46;;;;;;;15.13;2.97;;;;;;;1.19;100.00;100262.13;5346506;27;20020;-83
2022/01/05 05:45:17;;;;;;;17.98;3.10;;;;;;;1.23;100.00;100274.16;5343747;27;36575;-83
2022/01/05 05:47:49;;;;;;;19.02;3.90;;;;;;;1.19;100.00;100272.63;5345095;27;20020;-84
2022/01/05 05:50:20;;;;;;;15.18;3.10;;;;;;;1.29;100.00;100278.16;5346103;27;20498;-83
2022/01/05 05:52:51;;;;;;;14.15;3.22;;;;;;;1.27;100.00;100285.31;5350097;27;20031;-83
2022/01/05 05:55:23;;;;;;;13.80;2.95;;;;;;;1.30;100.00;100280.69;5359809;27;20041;-83
2022/01/05 05:57:54;;;;;;;17.17;3.55;;;;;;;1.29;100.00;100289.50;5358054;27;20387;-84
2022/01/05 06:00:25;;;;;;;16.10;2.95;;;;;;;1.32;100.00;100280.63;5358262;27;20509;-84
2022/01/05 06:02:58;;;;;;;6.68;2.40;;;;;;;1.26;100.00;100276.59;5356816;27;20019;-83
2022/01/05 06:05:29;;;;;;;10.98;3.08;;;;;;;1.36;100.00;100297.88;5329459;27;20054;-84
2022/01/05 06:08:01;;;;;;;17.83;3.72;;;;;;;1.28;100.00;100294.88;5329501;28;20028;-84
2022/01/05 06:10:32;;;;;;;17.98;3.25;;;;;;;1.30;100.00;100282.50;5337278;28;20012;-83
2022/01/05 06:13:03;;;;;;;19.35;3.78;;;;;;;1.38;100.00;100292.50;5339411;28;20092;-83
2022/01/05 06:15:35;;;;;;;18.58;3.78;;;;;;;1.29;100.00;100286.88;5340095;28;20061;-84
2022/01/05 06:18:06;;;;;;;17.23;3.50;;;;;;;1.29;100.00;100296.56;5339396;28;20141;-83
2022/01/05 06:20:37;;;;;;;9.98;2.83;;;;;;;1.26;100.00;100302.00;5331607;27;20032;-83
2022/01/05 06:23:09;;;;;;;15.15;3.40;;;;;;;1.16;100.00;100282.50;5324457;28;20028;-83
2022/01/05 06:25:40;;;;;;;20.13;3.47;;;;;;;1.26;100.00;100299.38;5328915;28;20032;-84
2022/01/05 06:28:11;;;;;;;14.63;3.58;;;;;;;1.28;100.00;100313.25;5329190;28;20341;-83
2022/01/05 06:30:42;;;;;;;15.20;4.53;;;;;;;1.26;100.00;100304.63;5331631;28;20013;-83
2022/01/05 06:33:14;;;;;;;16.33;3.65;;;;;;;1.26;100.00;100309.88;5308678;28;20051;-83
2022/01/05 06:35:45;;;;;;;22.77;3.22;;;;;;;1.17;100.00;100302.59;5328054;28;20020;-83
2022/01/05 06:38:16;;;;;;;16.95;4.18;;;;;;;1.24;100.00;100324.91;5308819;28;20115;-83
2022/01/05 06:40:48;;;;;;;17.38;3.50;;;;;;;1.30;100.00;100317.50;5327926;28;20547;-84
2022/01/05 06:43:19;;;;;;;24.27;4.18;;;;;;;1.39;100.00;100337.09;5327490;28;20051;-84
2022/01/05 06:45:50;;;;;;;22.27;3.65;;;;;;;1.40;100.00;100338.75;5328065;28;20044;-84
2022/01/05 06:48:22;;;;;;;18.73;3.75;;;;;;;1.43;100.00;100335.97;5327552;28;20342;-84
2022/01/05 06:50:53;;;;;;;16.65;3.95;;;;;;;1.45;100.00;100336.69;5327203;28;20028;-84
2022/01/05 06:53:25;;;;;;;19.27;4.22;;;;;;;1.42;100.00;100339.53;5327175;28;20162;-84
2022/01/05 06:55:56;;;;;;;18.40;4.18;;;;;;;1.44;100.00;100342.09;5308748;28;20408;-84
2022/01/05 06:58:28;;;;;;;13.35;3.63;;;;;;;1.43;100.00;100340.38;5326856;28;20032;-84
2022/01/05 07:00:59;;;;;;;9.93;4.00;;;;;;;1.43;100.00;100343.00;5327281;28;20046;-84
2022/01/05 07:03:30;;;;;;;15.98;3.13;;;;;;;1.34;100.00;100360.19;5327048;27;20445;-84
2022/01/05 07:06:03;;;;;;;15.07;4.25;;;;;;;1.44;100.00;100363.94;5308595;28;20077;-84
2022/01/05 07:08:35;;;;;;;19.42;3.70;;;;;;;1.43;100.00;100366.66;5308206;28;20099;-84
2022/01/05 07:11:06;;;;;;;16.40;3.13;;;;;;;1.46;100.00;100374.34;5327011;28;20120;-84
2022/01/05 07:13:37;;;;;;;17.83;3.75;;;;;;;1.47;100.00;100383.91;5326687;28;20020;-84
2022/01/05 07:16:08;;;;;;;17.90;3.80;;;;;;;1.48;100.00;100369.84;5326646;28;20024;-84
2022/01/05 07:18:41;;;;;;;15.35;3.53;;;;;;;1.52;100.00;100376.59;5326956;28;20460;-84
2022/01/05 07:21:12;;;;;;;16.42;4.00;;;;;;;1.43;100.00;100382.44;5305854;28;20454;-84
2022/01/05 07:23:44;;;;;;;13.40;3.83;;;;;;;1.53;100.00;100367.78;5315659;28;20024;-84
2022/01/05 07:26:15;;;;;;;16.98;5.13;;;;;;;1.59;100.00;100388.41;5325170;28;24867;-84
2022/01/05 07:28:46;;;;;;;24.33;4.13;;;;;;;1.56;100.00;100378.09;5326502;28;20031;-84
2022/01/05 07:31:18;;;;;;;16.10;4.20;;;;;;;1.64;100.00;100380.25;5326430;28;20050;-84
2022/01/05 07:33:49;;;;;;;19.73;4.00;;;;;;;1.71;100.00;100384.16;5327120;28;20476;-84
2022/01/05 07:36:20;;;;;;;17.38;4.20;;;;;;;1.73;100.00;100387.53;5306675;28;20438;-84
2022/01/05 07:38:51;;;;;;;14.57;4.05;;;;;;;1.73;100.00;100384.09;5325570;28;20024;-84
2022/01/05 07:41:23;;;;;;;16.10;3.58;;;;;;;1.81;100.00;100393.19;5326104;28;20027;-84
2022/01/05 07:43:54;;;;;;;18.95;3.63;;;;;;;1.85;100.00;100392.03;5326067;27;20036;-84
2022/01/05 07:46:25;;;;;;;20.00;4.50;;;;;;;1.91;100.00;100411.00;5326267;28;20028;-84
2022/01/05 07:48:57;;;;;;;17.92;4.50;;;;;;;2.00;100.00;100399.88;5326274;28;20016;-84
2022/01/05 07:51:29;;;;;;;15.35;3.90;;;;;;;1.99;100.00;100401.69;5323495;28;20017;-84
2022/01/05 07:54:00;;;;;;;15.13;5.93;;;;;;;2.08;100.00;100411.59;5320047;28;20025;-84
2022/01/05 07:56:32;;;;;;;17.40;3.50;;;;;;;2.08;100.00;100402.88;5315410;28;20059;-83
2022/01/05 07:59:04;;;;;;;21.20;5.35;;;;;;;2.25;100.00;100413.16;5307387;28;20043;-84
2022/01/05 08:01:35;;;;;;;17.92;4.07;;;;;;;2.24;100.00;100408.84;5324791;28;20613;-84
2022/01/05 08:04:07;;;;;;;17.10;3.92;;;;;;;2.38;100.00;100418.44;5314105;27;20044;-84
2022/01/05 08:06:38;;;;;;;12.18;3.10;;;;;;;2.39;100.00;100420.16;5317144;28;20048;-84
2022/01/05 08:09:09;;;;;;;17.83;3.60;;;;;;;2.55;100.00;100429.69;5304127;28;20017;-84
2022/01/05 08:11:41;;;;;;;13.82;3.63;;;;;;;2.67;100.00;100439.41;5302719;28;20032;-84
2022/01/05 08:14:12;;;;;;;17.83;3.70;;;;;;;2.68;100.00;100433.19;5304271;28;20016;-84
2022/01/05 08:16:43;;;;;;;21.35;4.22;;;;;;;2.78;100.00;100430.78;5304811;28;20020;-84
2022/01/05 08:19:15;;;;;;;15.20;2.75;;;;;;;2.81;100.00;100427.97;5304617;28;20024;-84
2022/01/05 08:21:46;;;;;;;14.30;2.95;;;;;;;2.98;100.00;100434.72;5304687;28;20119;-84
2022/01/05 08:24:17;;;;;;;19.15;3.33;;;;;;;3.02;100.00;100429.13;5324316;28;20406;-84
2022/01/05 08:26:49;;;;;;;13.43;3.40;;;;;;;3.04;100.00;100436.94;5325668;28;20021;-84
2022/01/05 08:29:20;;;;;;;19.23;3.40;;;;;;;3.13;100.00;100440.75;5306546;28;20090;-84
2022/01/05 08:31:51;;;;;;;13.00;3.55;;;;;;;3.10;100.00;100435.69;5325309;28;20020;-84
2022/01/05 08:34:23;;;;;;;15.65;2.88;;;;;;;3.10;100.00;100441.78;5324958;28;20468;-84
2022/01/05 08:36:54;;;;;;;12.77;3.25;;;;;;;3.19;100.00;100442.94;5324637;28;20090;-85
2022/01/05 08:39:26;;;;;;;25.30;5.25;;;;;;;3.22;100.00;100433.03;5316827;28;20418;-84
2022/01/05 08:41:57;;;;;;;20.60;4.07;;;;;;;3.21;100.00;100439.28;5292025;28;20013;-84
2022/01/05 08:44:29;;;;;;;13.93;2.90;;;;;;;3.45;100.00;100442.97;5302604;28;20033;-83
2022/01/05 08:47:00;;;;;;;16.45;3.85;;;;;;;3.35;100.00;100424.31;5305128;28;20464;-83
2022/01/05 08:49:31;;;;;;;18.13;3.53;;;;;;;3.50;100.00;100441.69;5322882;28;20028;-83
2022/01/05 08:52:03;;;;;;;12.60;2.67;;;;;;;3.44;100.00;100422.81;5324553;28;20057;-83
2022/01/05 08:54:35;;;;;;;13.27;2.70;;;;;;;3.49;100.00;100437.38;5324669;28;20020;-83
2022/01/05 08:57:06;;;;;;;27.35;3.88;;;;;;;3.59;100.00;100446.34;5324453;28;20384;-84
2022/01/05 08:59:37;;;;;;;15.85;2.88;;;;;;;3.50;100.00;100443.50;5324668;28;20020;-84
2022/01/05 09:02:09;;;;;;;13.23;2.85;;;;;;;3.47;100.00;100448.97;5324792;28;20102;-84
2022/01/05 09:04:40;;;;;;;13.88;2.90;;;;;;;3.49;100.00;100445.28;5324420;27;20060;-83
2022/01/05 09:07:12;;;;;;;17.17;2.53;;;;;;;3.67;100.00;100437.88;5307264;28;20370;-84
2022/01/05 09:09:44;;;;;;;9.30;2.20;;;;;;;3.84;100.00;100451.66;5303736;28;20028;-83
2022/01/05 09:12:15;;;;;;;21.40;3.58;;;;;;;3.98;100.00;100470.03;5317477;28;20024;-83
2022/01/05 09:14:46;;;;;;;10.43;2.20;;;;;;;4.11;100.00;100467.34;5323736;28;20026;-84
2022/01/05 09:17:18;;;;;;;9.75;2.67;;;;;;;4.06;100.00;100459.75;5324210;28;20024;-83
2022/01/05 09:19:49;;;;;;;10.48;2.75;;;;;;;4.09;100.00;100475.38;5324638;28;20024;-83
2022/01/05 09:22:21;;;;;;;12.57;2.75;;;;;;;4.18;100.00;100463.31;5325061;28;20154;-83
2022/01/05 09:24:52;;;;;;;15.82;3.10;;;;;;;4.20;100.00;100460.56;5324407;28;20028;-84
2022/01/05 09:27:24;;;;;;;17.30;3.03;;;;;;;4.39;100.00;100466.19;5323863;27;20476;-84
2022/01/05 09:29:55;;;;;;;13.75;3.55;;;;;;;4.45;100.00;100478.09;5322398;28;20379;-84
2022/01/05 09:32:26;;;;;;;18.60;3.40;;;;;;;4.48;100.00;100488.44;5323502;28;20052;-83
2022/01/05 09:34:58;;;;;;;16.85;3.30;;;;;;;4.44;100.00;100476.44;5305367;28;20028;-84
2022/01/05 09:37:36;;;;;;;10.95;2.80;;;;;;;4.43;100.00;100480.00;5306166;28;20027;-83
2022/01/05 09:42:58;;;;;;;21.50;3.50;;;;;;;4.20;100.00;100500.16;5324475;28;20024;-83
2022/01/05 09:45:33;;;;;;;16.17;2.92;;;;;;;4.32;100.00;100525.69;5323915;27;20047;-84
2022/01/05 09:48:39;;;;;;;10.13;2.17;;;;;;;4.31;100.00;100506.38;5327555;28;20020;-84
2022/01/05 09:51:17;;;;;;;8.85;2.55;;;;;;;4.18;100.00;100518.75;5272139;28;20040;-83
2022/01/05 09:53:50;;;;;;;15.82;2.63;;;;;;;4.17;100.00;100517.03;5306841;28;20486;-84
2022/01/05 09:56:21;;;;;;;17.20;3.03;;;;;;;4.28;100.00;100511.03;5306932;28;20113;-83
2022/01/05 09:58:54;;;;;;;14.30;2.83;;;;;;;4.25;100.00;100508.59;5306441;28;20025;-84
2022/01/05 10:01:25;;;;;;;11.00;2.25;;;;;;;4.27;100.00;100518.09;5307170;28;20416;-83
2022/01/05 10:03:58;;;;;;;10.88;2.13;;;;;;;4.15;100.00;100508.41;5308845;27;20113;-84
2022/01/05 10:06:36;;;;;;;10.27;1.98;;;;;;;4.21;100.00;100517.66;5327007;28;20051;-83
2022/01/05 10:09:08;;;;;;;14.13;2.38;;;;;;;4.17;100.00;100509.13;5327969;28;20543;-83
2022/01/05 10:11:40;;;;;;;20.27;2.88;;;;;;;4.29;100.00;100513.53;5328100;28;20468;-83
2022/01/05 10:14:13;;;;;;;11.77;2.63;;;;;;;4.23;100.00;100518.44;5309039;28;20040;-83
2022/01/05 10:17:03;;;;;;;14.57;3.00;;;;;;;4.40;100.00;100531.28;5307481;28;20027;-84
2022/01/05 10:19:36;;;;;;;14.88;2.78;;;;;;;4.43;100.00;100538.13;5316580;28;20081;-84
2022/01/05 10:22:27;;;;;;;15.68;3.25;;;;;;;4.56;100.00;100533.66;5327349;28;20017;-84
2022/01/05 10:24:59;;;;;;;12.60;2.38;;;;;;;4.71;100.00;100521.09;5327511;28;20512;-83
2022/01/05 10:27:32;;;;;;;17.52;3.50;;;;;;;5.15;100.00;100539.91;5328296;28;20157;-84
2022/01/05 10:30:04;;;;;;;15.27;3.25;;;;;;;5.56;100.00;100534.16;5327668;28;20038;-84
2022/01/05 10:32:38;;;;;;;17.00;3.85;;;;;;;5.93;100.00;100539.22;5329407;28;20017;-84
2022/01/05 10:35:27;;;;;;;11.85;3.00;;;;;;;6.01;100.00;100531.56;5309887;28;20384;-84
2022/01/05 10:38:08;;;;;;;11.60;2.35;;;;;;;6.09;100.00;100530.13;5327153;28;20103;-83
2022/01/05 10:40:42;;;;;;;15.32;2.65;;;;;;;6.15;100.00;100532.28;5307582;28;20032;-83
2022/01/05 10:43:16;;;;;;;14.68;2.80;;;;;;;6.22;100.00;100538.75;5304988;28;20082;-83
2022/01/05 10:45:51;;;;;;;15.27;3.10;;;;;;;6.21;100.00;100543.22;5287232;28;20035;-83
2022/01/05 10:48:24;;;;;;;13.32;3.50;;;;;;;6.32;100.00;100542.38;5305709;28;20025;-84
2022/01/05 10:51:05;;;;;;;19.42;3.22;;;;;;;6.27;100.00;100555.13;5287662;28;20016;-83
2022/01/05 10:53:36;;;;;;;10.85;2.53;;;;;;;6.39;100.00;100555.97;5305658;28;20042;-84
2022/01/05 10:56:08;;;;;;;14.65;2.97;;;;;;;6.33;100.00;100552.00;5305100;28;20032;-83
2022/01/05 10:58:44;;;;;;;11.35;2.70;;;;;;;6.46;100.00;100553.69;5308778;28;20078;-84
2022/01/05 11:01:42;;;;;;;14.70;2.58;;;;;;;6.93;100.00;100572.84;5326432;28;20413;-83
2022/01/05 11:04:15;;;;;;;;;;;;;;;7.22;100.00;100578.38;5302272;28;20041;-83
2022/01/05 11:06:58;;;;;;;16.55;2.40;;;;;;;7.15;100.00;100579.88;5310387;27;19942;-83
2022/01/05 11:09:31;;;;;;;13.32;3.08;;;;;;;7.03;100.00;100586.19;5316777;28;20023;-83
2022/01/05 11:12:10;;;;;;;13.48;2.60;;;;;;;6.88;100.00;100586.47;5328334;28;20020;-83
2022/01/05 11:14:42;;;;;;;21.77;3.33;;;;;;;6.84;100.00;100547.94;5328238;27;20107;-83
2022/01/05 11:17:17;;;;;;;13.70;2.90;;;;;;;7.06;100.00;100551.47;5328578;27;20181;-82
2022/01/05 11:19:49;;;;;;;11.25;2.47;;;;;;;7.24;100.00;100576.47;5301845;28;20111;-83
2022/01/05 11:22:21;;;;;;;15.95;2.40;;;;;;;6.84;100.00;100589.50;5307900;28;20041;-83
2022/01/05 11:24:53;;;;;;;14.43;2.65;;;;;;;6.64;100.00;100568.09;5307897;28;20138;-83
2022/01/05 11:27:28;;;;;;;10.73;2.17;;;;;;;6.19;100.00;100549.63;5310024;28;20439;-84
2022/01/05 11:30:00;;;;;;;9.82;2.42;;;;;;;6.20;100.00;100573.31;5310019;28;20469;-84
2022/01/05 11:32:34;;;;;;;11.00;2.00;;;;;;;6.15;100.00;100574.66;5327733;28;20805;-83
2022/01/05 11:35:07;;;;;;;8.20;2.70;;;;;;;6.30;100.00;100596.44;5326410;28;20016;-82
2022/01/05 11:37:38;;;;;;;19.15;2.88;;;;;;;6.07;100.00;100593.78;5326540;28;20024;-83
2022/01/05 11:40:10;;;;;;;20.00;2.67;;;;;;;6.20;100.00;100614.84;5325704;28;20016;-82
2022/01/05 11:42:45;;;;;;;18.80;2.78;;;;;;;6.20;100.00;100596.31;5326514;28;20073;-82
2022/01/05 11:45:45;;;;;;;12.90;2.53;;;;;;;6.20;100.00;100605.09;5307437;28;20155;-82